Windflight — WDF6324 — position and weather

sailwx.info

Track history (hours):
 
Tides and Currents Weather Stations Pressure Air Temp Water Temp Dewpoint Dewpoint Depression Visibility Wind Speed Wind Dir Waves Ship Positions

Windflight

Owner: Windflight Inc., Medina, WA. More information available from US FCC via Universal Licensing System and Coast Guard Vessel Documentation Center.

Last reported at 2014-Sep-27 20:04 UTC. Time now 2014-Oct-02 16:41 UTC.
Position N 47°41' W 122°25'.

Length 21 m.

Type: Pleasure craft. MMSI: 367473060.

Date/timePositionNaut miles runAvg speedWind from/ knotsBaromVisibWave heightAir tempDewpointWater temp
2014-Sep-27 20:04N 47°41' W 122°25'0 0.0
2014-Sep-27 19:45N 47°41' W 122°25'0 0.0
2014-Sep-27 19:31N 47°41' W 122°25'0 0.0
2014-Sep-27 19:30N 47°41' W 122°25'0 0.0
2014-Sep-27 18:31N 47°41' W 122°25'0 0.0
2014-Sep-27 18:30N 47°41' W 122°25'0 0.0
2014-Sep-27 17:31N 47°41' W 122°25'0 0.0
2014-Sep-27 17:30N 47°41' W 122°25'  
2014-Sep-25 02:24N 47°41' W 122°25'0 0.0
2014-Sep-25 02:24N 47°41' W 122°25'0 0.0
2014-Sep-25 01:33N 47°41' W 122°25'0 0.0
2014-Sep-25 01:24N 47°41' W 122°25'0 0.0
2014-Sep-25 00:33N 47°41' W 122°25'0 0.0
2014-Sep-25 00:24N 47°41' W 122°25'0 0.0
2014-Sep-24 23:33N 47°41' W 122°25'0 0.0
2014-Sep-24 23:24N 47°41' W 122°25'0 0.0
2014-Sep-24 22:33N 47°41' W 122°25'0 0.0
2014-Sep-24 22:18N 47°41' W 122°25'0 0.0
2014-Sep-24 21:33N 47°41' W 122°25'0 0.0
2014-Sep-24 21:33N 47°41' W 122°25'0 0.0
2014-Sep-24 20:33N 47°41' W 122°25'0 0.0
2014-Sep-24 20:33N 47°41' W 122°25'0 0.0
2014-Sep-24 19:33N 47°41' W 122°25'0 0.2
2014-Sep-24 19:18N 47°41' W 122°25'0 0.1
2014-Sep-24 18:33N 47°41' W 122°25'0 0.0
2014-Sep-24 18:33N 47°41' W 122°25'5 4.5
2014-Sep-24 17:31N 47°43' W 122°31'0 8.6
2014-Sep-24 17:28N 47°43' W 122°31'1 0.9
2014-Sep-24 16:24N 47°42' W 122°32'0 0.0
2014-Sep-24 16:12N 47°42' W 122°32'0 0.0
2014-Sep-24 15:27N 47°42' W 122°32'0 0.0
2014-Sep-24 15:27N 47°42' W 122°32'0 0.0
2014-Sep-24 14:33N 47°42' W 122°32'0 0.1
2014-Sep-24 14:27N 47°42' W 122°32'0 0.0
2014-Sep-24 13:27N 47°42' W 122°32'0 0.0
2014-Sep-24 13:27N 47°42' W 122°32'0 0.0
2014-Sep-24 12:33N 47°42' W 122°32'0 0.0
2014-Sep-24 12:27N 47°42' W 122°32'0 0.0
2014-Sep-24 11:30N 47°42' W 122°32'0 0.0
2014-Sep-24 11:27N 47°42' W 122°32'0 0.0
2014-Sep-24 10:30N 47°42' W 122°32'0 0.0
2014-Sep-24 10:06N 47°42' W 122°32'0 0.0
2014-Sep-24 09:33N 47°42' W 122°32'0 0.0
2014-Sep-24 09:06N 47°42' W 122°32'0 0.0
2014-Sep-24 08:33N 47°42' W 122°32'0 0.0
2014-Sep-24 08:06N 47°42' W 122°32'0 0.0
2014-Sep-24 07:33N 47°42' W 122°32'0 0.0
2014-Sep-24 07:21N 47°42' W 122°32'0 0.0
2014-Sep-24 06:33N 47°42' W 122°32'0 0.0
2014-Sep-24 06:21N 47°42' W 122°32'0 0.0
2014-Sep-24 05:45N 47°42' W 122°32'0 0.0
2014-Sep-24 05:33N 47°42' W 122°32'0 0.0
2014-Sep-24 04:30N 47°42' W 122°32'0 0.0
2014-Sep-24 04:30N 47°42' W 122°32'0 0.0
2014-Sep-24 03:33N 47°42' W 122°32'0 0.0
2014-Sep-24 02:45N 47°42' W 122°32'0 0.0
2014-Sep-24 02:30N 47°42' W 122°32'0 0.0
2014-Sep-24 02:30N 47°42' W 122°32'0 0.0
2014-Sep-24 01:30N 47°42' W 122°32'0 0.0
2014-Sep-24 01:30N 47°42' W 122°32'0 0.0
2014-Sep-24 00:30N 47°42' W 122°32'0 0.1
2014-Sep-24 00:24N 47°42' W 122°32'0 0.0
2014-Sep-23 23:27N 47°42' W 122°32'0 0.0
2014-Sep-23 23:24N 47°42' W 122°32'1 1.4
2014-Sep-23 22:33N 47°43' W 122°31'1 8.9
2014-Sep-23 22:29N 47°43' W 122°31'7 7.8
2014-Sep-23 21:34N 47°50' W 122°29'1 8.2
2014-Sep-23 21:29N 47°51' W 122°29'34 8.5
2014-Sep-23 17:31N 48°20' W 122°54'9 9.2
2014-Sep-23 16:33N 48°29' W 122°58'4 2.5
2014-Sep-23 15:08N 48°32' W 123°00'0 0.0
2014-Sep-23 14:26N 48°32' W 123°00'0 0.0
2014-Sep-23 13:26N 48°32' W 123°00'0 0.0
2014-Sep-23 12:32N 48°32' W 123°00'0 0.0
2014-Sep-23 11:32N 48°32' W 123°00'0 0.0
2014-Sep-23 10:32N 48°32' W 123°00'0 0.0
2014-Sep-23 09:32N 48°32' W 123°00'0 0.0
2014-Sep-23 08:32N 48°32' W 123°00'0 0.0
2014-Sep-23 07:32N 48°32' W 123°00'0 0.0
2014-Sep-23 06:32N 48°32' W 123°00'0 0.0
2014-Sep-23 05:32N 48°32' W 123°00'0 0.0
2014-Sep-23 04:32N 48°32' W 123°00'0 0.0
2014-Sep-23 03:11N 48°32' W 123°00'0 0.0
2014-Sep-23 02:32N 48°32' W 123°00'0 0.0
2014-Sep-23 01:32N 48°32' W 123°00'0 0.0
2014-Sep-23 00:32N 48°32' W 123°00'0 0.0
2014-Sep-22 23:32N 48°32' W 123°00'0 0.0
2014-Sep-22 22:33N 48°32' W 123°00'6 6.2
2014-Sep-22 21:34N 48°34' W 122°51'8 7.8
2014-Sep-22 20:33N 48°31' W 122°40'3 2.7
2014-Sep-22 19:34N 48°31' W 122°36'2 1.6
2014-Sep-22 18:34N 48°31' W 122°39'8 8.1
2014-Sep-22 17:33N 48°33' W 122°51'6 6.5
2014-Sep-22 16:34N 48°32' W 123°00'0 0.0
2014-Sep-22 15:31N 48°32' W 123°00'0 0.0
2014-Sep-22 14:28N 48°32' W 123°00'0 0.0
2014-Sep-22 13:31N 48°32' W 123°00'0 0.0
2014-Sep-22 12:31N 48°32' W 123°00'0 0.0
2014-Sep-22 11:31N 48°32' W 123°00'0 0.0
2014-Sep-22 10:31N 48°32' W 123°00'0 0.0
2014-Sep-22 09:31N 48°32' W 123°00'0 0.0
2014-Sep-22 08:31N 48°32' W 123°00'0 0.0
2014-Sep-22 07:28N 48°32' W 123°00'0 0.0
2014-Sep-22 06:28N 48°32' W 123°00'0 0.0
2014-Sep-22 05:31N 48°32' W 123°00'0 0.0
2014-Sep-22 04:31N 48°32' W 123°00'0 0.0
2014-Sep-22 03:31N 48°32' W 123°00'0 0.0
2014-Sep-22 02:31N 48°32' W 123°00'0 0.0
2014-Sep-22 01:31N 48°32' W 123°00'0 0.0
2014-Sep-22 00:31N 48°32' W 123°00'0 0.0
2014-Sep-21 23:31N 48°32' W 123°00'0 0.0
2014-Sep-21 22:31N 48°32' W 123°00'0 0.0
2014-Sep-21 21:31N 48°32' W 123°00'0 0.0
2014-Sep-21 20:31N 48°32' W 123°00'0 0.0
2014-Sep-21 19:31N 48°32' W 123°00'0 0.0
2014-Sep-21 18:25N 48°32' W 123°00'0 0.0
2014-Sep-21 17:31N 48°32' W 123°00'0 0.0
2014-Sep-21 16:31N 48°32' W 123°00'0 0.0
2014-Sep-21 15:31N 48°32' W 123°00'0 0.0
2014-Sep-21 14:31N 48°32' W 123°00'0 0.0
2014-Sep-21 13:31N 48°32' W 123°00'0 0.0
2014-Sep-21 12:31N 48°32' W 123°00'0 0.0
2014-Sep-21 11:31N 48°32' W 123°00'0 0.0
2014-Sep-21 10:31N 48°32' W 123°00'0 0.0
2014-Sep-21 09:31N 48°32' W 123°00'0 0.0
2014-Sep-21 08:31N 48°32' W 123°00'0 0.0
2014-Sep-21 07:31N 48°32' W 123°00'0 0.0
2014-Sep-21 06:28N 48°32' W 123°00'0 0.0
2014-Sep-21 05:31N 48°32' W 123°00'0 0.0
2014-Sep-21 04:28N 48°32' W 123°00'0 0.0
2014-Sep-21 03:31N 48°32' W 123°00'0 0.0
2014-Sep-21 02:31N 48°32' W 123°00'0 0.0
2014-Sep-21 01:31N 48°32' W 123°00'0 0.0
2014-Sep-21 00:31N 48°32' W 123°00'0 0.0
2014-Sep-20 23:31N 48°32' W 123°00'0 0.0
2014-Sep-20 22:31N 48°32' W 123°00'0 0.0
2014-Sep-20 21:31N 48°32' W 123°00'0 0.0
2014-Sep-20 20:31N 48°32' W 123°00'0 0.0
2014-Sep-20 19:31N 48°32' W 123°00'0 0.0
2014-Sep-20 18:25N 48°32' W 123°00'0 0.0
2014-Sep-20 17:31N 48°32' W 123°00'0 0.0
2014-Sep-20 16:28N 48°32' W 123°00'0 0.0
2014-Sep-20 15:31N 48°32' W 123°00'0 0.0
2014-Sep-20 14:16N 48°32' W 123°00'0 0.0
2014-Sep-20 13:31N 48°32' W 123°00'0 0.0
2014-Sep-20 12:31N 48°32' W 123°00'0 0.0
2014-Sep-20 11:31N 48°32' W 123°00'0 0.0
2014-Sep-20 10:31N 48°32' W 123°00'0 0.0
2014-Sep-20 09:31N 48°32' W 123°00'0 0.0
2014-Sep-20 08:31N 48°32' W 123°00'0 0.0
2014-Sep-20 07:31N 48°32' W 123°00'0 0.0
2014-Sep-20 06:31N 48°32' W 123°00'0 0.0
2014-Sep-20 05:31N 48°32' W 123°00'0 0.0
2014-Sep-20 04:25N 48°32' W 123°00'0 0.0
2014-Sep-20 03:31N 48°32' W 123°00'0 0.0
2014-Sep-20 02:31N 48°32' W 123°00'0 0.0
2014-Sep-20 01:31N 48°32' W 123°00'0 0.0
2014-Sep-20 00:31N 48°32' W 123°00'0 0.0
2014-Sep-19 23:33N 48°32' W 123°00'6 6.1
2014-Sep-19 22:34N 48°26' W 122°57'32 7.3
2014-Sep-19 18:12N 47°58' W 122°34'5 7.9
2014-Sep-19 17:34N 47°55' W 122°29'9 8.8
2014-Sep-19 16:34N 47°46' W 122°25'6 5.4
2014-Sep-19 15:31N 47°41' W 122°25'0 0.0
2014-Sep-19 12:07N 47°41' W 122°25'0 0.0
2014-Sep-19 11:31N 47°41' W 122°25'0 0.0
2014-Sep-19 10:19N 47°41' W 122°25'0 0.0
2014-Sep-19 09:25N 47°41' W 122°25'0 0.0
2014-Sep-19 08:31N 47°41' W 122°25'0 0.0
2014-Sep-19 07:31N 47°41' W 122°25'0 0.0
2014-Sep-19 06:19N 47°41' W 122°25'0 0.0
2014-Sep-19 05:31N 47°41' W 122°25'0 0.0
2014-Sep-19 04:25N 47°41' W 122°25'0 0.0
2014-Sep-19 03:28N 47°41' W 122°25'0 0.0
2014-Sep-19 02:31N 47°41' W 122°25'0 0.0
2014-Sep-19 01:19N 47°41' W 122°25'0 0.0
2014-Sep-19 00:25N 47°41' W 122°25'0 0.0
2014-Sep-18 23:31N 47°41' W 122°25'0 0.0
2014-Sep-18 22:25N 47°41' W 122°25'0 0.0
2014-Sep-18 21:31N 47°41' W 122°25'0 0.0
2014-Sep-18 20:31N 47°41' W 122°25'0 0.0
2014-Sep-18 19:31N 47°41' W 122°25'  
Track history (hours):
 
Tides and Currents Weather Stations Pressure Air Temp Water Temp Dewpoint Dewpoint Depression Visibility Wind Speed Wind Dir Waves Ship Positions

Windflight

Owner: Windflight Inc., Medina, WA. More information available from US FCC via Universal Licensing System and Coast Guard Vessel Documentation Center.

Last reported at 2014-Sep-27 20:04 UTC. Time now 2014-Oct-02 16:41 UTC.
Position N 47°41' W 122°25'.

Length 21 m.

Type: Pleasure craft. MMSI: 367473060.

Date/timePositionNaut miles runAvg speedWind from/ knotsBaromVisibWave heightAir tempDewpointWater temp
2014-Sep-27 20:04N 47°41' W 122°25'0 0.0
2014-Sep-27 19:45N 47°41' W 122°25'0 0.0
2014-Sep-27 19:31N 47°41' W 122°25'0 0.0
2014-Sep-27 19:30N 47°41' W 122°25'0 0.0
2014-Sep-27 18:31N 47°41' W 122°25'0 0.0
2014-Sep-27 18:30N 47°41' W 122°25'0 0.0
2014-Sep-27 17:31N 47°41' W 122°25'0 0.0
2014-Sep-27 17:30N 47°41' W 122°25'  
2014-Sep-25 02:24N 47°41' W 122°25'0 0.0
2014-Sep-25 02:24N 47°41' W 122°25'0 0.0
2014-Sep-25 01:33N 47°41' W 122°25'0 0.0
2014-Sep-25 01:24N 47°41' W 122°25'0 0.0
2014-Sep-25 00:33N 47°41' W 122°25'0 0.0
2014-Sep-25 00:24N 47°41' W 122°25'0 0.0
2014-Sep-24 23:33N 47°41' W 122°25'0 0.0
2014-Sep-24 23:24N 47°41' W 122°25'0 0.0
2014-Sep-24 22:33N 47°41' W 122°25'0 0.0
2014-Sep-24 22:18N 47°41' W 122°25'0 0.0
2014-Sep-24 21:33N 47°41' W 122°25'0 0.0
2014-Sep-24 21:33N 47°41' W 122°25'0 0.0
2014-Sep-24 20:33N 47°41' W 122°25'0 0.0
2014-Sep-24 20:33N 47°41' W 122°25'0 0.0
2014-Sep-24 19:33N 47°41' W 122°25'0 0.2
2014-Sep-24 19:18N 47°41' W 122°25'0 0.1
2014-Sep-24 18:33N 47°41' W 122°25'0 0.0
2014-Sep-24 18:33N 47°41' W 122°25'5 4.5
2014-Sep-24 17:31N 47°43' W 122°31'0 8.6
2014-Sep-24 17:28N 47°43' W 122°31'1 0.9
2014-Sep-24 16:24N 47°42' W 122°32'0 0.0
2014-Sep-24 16:12N 47°42' W 122°32'0 0.0
2014-Sep-24 15:27N 47°42' W 122°32'0 0.0
2014-Sep-24 15:27N 47°42' W 122°32'0 0.0
2014-Sep-24 14:33N 47°42' W 122°32'0 0.1
2014-Sep-24 14:27N 47°42' W 122°32'0 0.0
2014-Sep-24 13:27N 47°42' W 122°32'0 0.0
2014-Sep-24 13:27N 47°42' W 122°32'0 0.0
2014-Sep-24 12:33N 47°42' W 122°32'0 0.0
2014-Sep-24 12:27N 47°42' W 122°32'0 0.0
2014-Sep-24 11:30N 47°42' W 122°32'0 0.0
2014-Sep-24 11:27N 47°42' W 122°32'0 0.0
2014-Sep-24 10:30N 47°42' W 122°32'0 0.0
2014-Sep-24 10:06N 47°42' W 122°32'0 0.0
2014-Sep-24 09:33N 47°42' W 122°32'0 0.0
2014-Sep-24 09:06N 47°42' W 122°32'0 0.0
2014-Sep-24 08:33N 47°42' W 122°32'0 0.0
2014-Sep-24 08:06N 47°42' W 122°32'0 0.0
2014-Sep-24 07:33N 47°42' W 122°32'0 0.0
2014-Sep-24 07:21N 47°42' W 122°32'0 0.0
2014-Sep-24 06:33N 47°42' W 122°32'0 0.0
2014-Sep-24 06:21N 47°42' W 122°32'0 0.0
2014-Sep-24 05:45N 47°42' W 122°32'0 0.0
2014-Sep-24 05:33N 47°42' W 122°32'0 0.0
2014-Sep-24 04:30N 47°42' W 122°32'0 0.0
2014-Sep-24 04:30N 47°42' W 122°32'0 0.0
2014-Sep-24 03:33N 47°42' W 122°32'0 0.0
2014-Sep-24 02:45N 47°42' W 122°32'0 0.0
2014-Sep-24 02:30N 47°42' W 122°32'0 0.0
2014-Sep-24 02:30N 47°42' W 122°32'0 0.0
2014-Sep-24 01:30N 47°42' W 122°32'0 0.0
2014-Sep-24 01:30N 47°42' W 122°32'0 0.0
2014-Sep-24 00:30N 47°42' W 122°32'0 0.1
2014-Sep-24 00:24N 47°42' W 122°32'0 0.0
2014-Sep-23 23:27N 47°42' W 122°32'0 0.0
2014-Sep-23 23:24N 47°42' W 122°32'1 1.4
2014-Sep-23 22:33N 47°43' W 122°31'1 8.9
2014-Sep-23 22:29N 47°43' W 122°31'7 7.8
2014-Sep-23 21:34N 47°50' W 122°29'1 8.2
2014-Sep-23 21:29N 47°51' W 122°29'34 8.5
2014-Sep-23 17:31N 48°20' W 122°54'9 9.2
2014-Sep-23 16:33N 48°29' W 122°58'4 2.5
2014-Sep-23 15:08N 48°32' W 123°00'0 0.0
2014-Sep-23 14:26N 48°32' W 123°00'0 0.0
2014-Sep-23 13:26N 48°32' W 123°00'0 0.0
2014-Sep-23 12:32N 48°32' W 123°00'0 0.0
2014-Sep-23 11:32N 48°32' W 123°00'0 0.0
2014-Sep-23 10:32N 48°32' W 123°00'0 0.0
2014-Sep-23 09:32N 48°32' W 123°00'0 0.0
2014-Sep-23 08:32N 48°32' W 123°00'0 0.0
2014-Sep-23 07:32N 48°32' W 123°00'0 0.0
2014-Sep-23 06:32N 48°32' W 123°00'0 0.0
2014-Sep-23 05:32N 48°32' W 123°00'0 0.0
2014-Sep-23 04:32N 48°32' W 123°00'0 0.0
2014-Sep-23 03:11N 48°32' W 123°00'0 0.0
2014-Sep-23 02:32N 48°32' W 123°00'0 0.0
2014-Sep-23 01:32N 48°32' W 123°00'0 0.0
2014-Sep-23 00:32N 48°32' W 123°00'0 0.0
2014-Sep-22 23:32N 48°32' W 123°00'0 0.0
2014-Sep-22 22:33N 48°32' W 123°00'6 6.2
2014-Sep-22 21:34N 48°34' W 122°51'8 7.8
2014-Sep-22 20:33N 48°31' W 122°40'3 2.7
2014-Sep-22 19:34N 48°31' W 122°36'2 1.6
2014-Sep-22 18:34N 48°31' W 122°39'8 8.1
2014-Sep-22 17:33N 48°33' W 122°51'6 6.5
2014-Sep-22 16:34N 48°32' W 123°00'0 0.0
2014-Sep-22 15:31N 48°32' W 123°00'0 0.0
2014-Sep-22 14:28N 48°32' W 123°00'0 0.0
2014-Sep-22 13:31N 48°32' W 123°00'0 0.0
2014-Sep-22 12:31N 48°32' W 123°00'0 0.0
2014-Sep-22 11:31N 48°32' W 123°00'0 0.0
2014-Sep-22 10:31N 48°32' W 123°00'0 0.0
2014-Sep-22 09:31N 48°32' W 123°00'0 0.0
2014-Sep-22 08:31N 48°32' W 123°00'0 0.0
2014-Sep-22 07:28N 48°32' W 123°00'0 0.0
2014-Sep-22 06:28N 48°32' W 123°00'0 0.0
2014-Sep-22 05:31N 48°32' W 123°00'0 0.0
2014-Sep-22 04:31N 48°32' W 123°00'0 0.0
2014-Sep-22 03:31N 48°32' W 123°00'0 0.0
2014-Sep-22 02:31N 48°32' W 123°00'0 0.0
2014-Sep-22 01:31N 48°32' W 123°00'0 0.0
2014-Sep-22 00:31N 48°32' W 123°00'0 0.0
2014-Sep-21 23:31N 48°32' W 123°00'0 0.0
2014-Sep-21 22:31N 48°32' W 123°00'0 0.0
2014-Sep-21 21:31N 48°32' W 123°00'0 0.0
2014-Sep-21 20:31N 48°32' W 123°00'0 0.0
2014-Sep-21 19:31N 48°32' W 123°00'0 0.0
2014-Sep-21 18:25N 48°32' W 123°00'0 0.0
2014-Sep-21 17:31N 48°32' W 123°00'0 0.0
2014-Sep-21 16:31N 48°32' W 123°00'0 0.0
2014-Sep-21 15:31N 48°32' W 123°00'0 0.0
2014-Sep-21 14:31N 48°32' W 123°00'0 0.0
2014-Sep-21 13:31N 48°32' W 123°00'0 0.0
2014-Sep-21 12:31N 48°32' W 123°00'0 0.0
2014-Sep-21 11:31N 48°32' W 123°00'0 0.0
2014-Sep-21 10:31N 48°32' W 123°00'0 0.0
2014-Sep-21 09:31N 48°32' W 123°00'0 0.0
2014-Sep-21 08:31N 48°32' W 123°00'0 0.0
2014-Sep-21 07:31N 48°32' W 123°00'0 0.0
2014-Sep-21 06:28N 48°32' W 123°00'0 0.0
2014-Sep-21 05:31N 48°32' W 123°00'0 0.0
2014-Sep-21 04:28N 48°32' W 123°00'0 0.0
2014-Sep-21 03:31N 48°32' W 123°00'0 0.0
2014-Sep-21 02:31N 48°32' W 123°00'0 0.0
2014-Sep-21 01:31N 48°32' W 123°00'0 0.0
2014-Sep-21 00:31N 48°32' W 123°00'0 0.0
2014-Sep-20 23:31N 48°32' W 123°00'0 0.0
2014-Sep-20 22:31N 48°32' W 123°00'0 0.0
2014-Sep-20 21:31N 48°32' W 123°00'0 0.0
2014-Sep-20 20:31N 48°32' W 123°00'0 0.0
2014-Sep-20 19:31N 48°32' W 123°00'0 0.0
2014-Sep-20 18:25N 48°32' W 123°00'0 0.0
2014-Sep-20 17:31N 48°32' W 123°00'0 0.0
2014-Sep-20 16:28N 48°32' W 123°00'0 0.0
2014-Sep-20 15:31N 48°32' W 123°00'0 0.0
2014-Sep-20 14:16N 48°32' W 123°00'0 0.0
2014-Sep-20 13:31N 48°32' W 123°00'0 0.0
2014-Sep-20 12:31N 48°32' W 123°00'0 0.0
2014-Sep-20 11:31N 48°32' W 123°00'0 0.0
2014-Sep-20 10:31N 48°32' W 123°00'0 0.0
2014-Sep-20 09:31N 48°32' W 123°00'0 0.0
2014-Sep-20 08:31N 48°32' W 123°00'0 0.0
2014-Sep-20 07:31N 48°32' W 123°00'0 0.0
2014-Sep-20 06:31N 48°32' W 123°00'0 0.0
2014-Sep-20 05:31N 48°32' W 123°00'0 0.0
2014-Sep-20 04:25N 48°32' W 123°00'0 0.0
2014-Sep-20 03:31N 48°32' W 123°00'0 0.0
2014-Sep-20 02:31N 48°32' W 123°00'0 0.0
2014-Sep-20 01:31N 48°32' W 123°00'0 0.0
2014-Sep-20 00:31N 48°32' W 123°00'0 0.0
2014-Sep-19 23:33N 48°32' W 123°00'6 6.1
2014-Sep-19 22:34N 48°26' W 122°57'32 7.3
2014-Sep-19 18:12N 47°58' W 122°34'5 7.9
2014-Sep-19 17:34N 47°55' W 122°29'9 8.8
2014-Sep-19 16:34N 47°46' W 122°25'6 5.4
2014-Sep-19 15:31N 47°41' W 122°25'0 0.0
2014-Sep-19 12:07N 47°41' W 122°25'0 0.0
2014-Sep-19 11:31N 47°41' W 122°25'0 0.0
2014-Sep-19 10:19N 47°41' W 122°25'0 0.0
2014-Sep-19 09:25N 47°41' W 122°25'0 0.0
2014-Sep-19 08:31N 47°41' W 122°25'0 0.0
2014-Sep-19 07:31N 47°41' W 122°25'0 0.0
2014-Sep-19 06:19N 47°41' W 122°25'0 0.0
2014-Sep-19 05:31N 47°41' W 122°25'0 0.0
2014-Sep-19 04:25N 47°41' W 122°25'0 0.0
2014-Sep-19 03:28N 47°41' W 122°25'0 0.0
2014-Sep-19 02:31N 47°41' W 122°25'0 0.0
2014-Sep-19 01:19N 47°41' W 122°25'0 0.0
2014-Sep-19 00:25N 47°41' W 122°25'0 0.0
2014-Sep-18 23:31N 47°41' W 122°25'0 0.0
2014-Sep-18 22:25N 47°41' W 122°25'0 0.0
2014-Sep-18 21:31N 47°41' W 122°25'0 0.0
2014-Sep-18 20:31N 47°41' W 122°25'0 0.0
2014-Sep-18 19:31N 47°41' W 122°25'  

Dump ship's entire track history